Time;durP1;ratioP1;P1;durP2;ratioP2;P2;SDS_P1;SDS_P2;PMS_P1;PMS_P2;Temp;Humidity;BMP_temperature;BMP_pressure;BME280_temperature;BME280_humidity;BME280_pressure;Samples;Min_cycle;Max_cycle;Signal;HPM_P1;HPM_P2
2022/03/08 00:02:11;;;;;;;17.10;8.60;;;;;;;;;;5133727;27;20400;-54
2022/03/08 00:04:37;;;;;;;13.30;9.20;;;;;;;;;;5133642;27;20908;-54
2022/03/08 00:07:03;;;;;;;11.27;7.70;;;;;;;;;;5133461;27;20422;-54
2022/03/08 00:09:29;;;;;;;13.07;8.30;;;;;;;;;;5133413;27;20433;-52
2022/03/08 00:11:55;;;;;;;11.80;8.90;;;;;;;;;;5114507;27;20821;-54
2022/03/08 00:14:21;;;;;;;8.80;7.33;;;;;;;;;;5133566;27;20419;-53
2022/03/08 00:16:47;;;;;;;9.50;8.03;;;;;;;;;;5133365;27;20772;-56
2022/03/08 00:19:14;;;;;;;12.13;7.70;;;;;;;;;;5133047;27;20512;-53
2022/03/08 00:21:40;;;;;;;11.10;8.30;;;;;;;;;;5133412;27;20400;-55
2022/03/08 00:24:06;;;;;;;13.50;8.17;;;;;;;;;;5115125;28;20769;-52
2022/03/08 00:26:33;;;;;;;12.20;8.37;;;;;;;;;;5114815;28;20818;-53
2022/03/08 00:28:59;;;;;;;12.10;7.90;;;;;;;;;;5133272;27;20487;-53
2022/03/08 00:31:25;;;;;;;15.23;8.63;;;;;;;;;;5133129;28;20404;-55
2022/03/08 00:33:51;;;;;;;10.87;8.40;;;;;;;;;;5133409;28;20418;-56
2022/03/08 00:36:17;;;;;;;10.40;8.10;;;;;;;;;;5114706;28;20426;-53
2022/03/08 00:38:43;;;;;;;11.47;7.70;;;;;;;;;;5133107;28;20559;-55
2022/03/08 00:41:09;;;;;;;9.73;7.20;;;;;;;;;;5133147;28;20749;-55
2022/03/08 00:43:35;;;;;;;12.33;7.80;;;;;;;;;;5133038;28;20900;-55
2022/03/08 00:46:01;;;;;;;10.40;7.40;;;;;;;;;;5132995;28;20411;-58
2022/03/08 00:48:27;;;;;;;14.73;9.10;;;;;;;;;;5132952;28;20436;-55
2022/03/08 00:50:53;;;;;;;12.80;8.57;;;;;;;;;;5133954;27;20452;-56
2022/03/08 00:53:19;;;;;;;16.10;8.90;;;;;;;;;;5137456;27;20427;-55
2022/03/08 00:55:46;;;;;;;10.53;8.00;;;;;;;;;;5137187;27;20400;-52
2022/03/08 00:58:12;;;;;;;12.90;8.00;;;;;;;;;;5137168;27;20400;-54
2022/03/08 01:00:38;;;;;;;13.57;7.83;;;;;;;;;;5137158;27;20484;-52
2022/03/08 01:03:04;;;;;;;9.90;8.20;;;;;;;;;;5137416;27;20903;-54
2022/03/08 01:05:31;;;;;;;13.43;8.70;;;;;;;;;;5137316;27;20895;-52
2022/03/08 01:08:00;;;;;;;13.57;8.33;;;;;;;;;;5137255;27;20912;-52
2022/03/08 01:10:27;;;;;;;14.20;8.87;;;;;;;;;;5137203;27;20417;-55
2022/03/08 01:12:54;;;;;;;12.10;8.27;;;;;;;;;;5137272;27;20495;-56
2022/03/08 01:15:20;;;;;;;11.80;8.30;;;;;;;;;;5137485;27;20404;-55
2022/03/08 01:17:47;;;;;;;14.20;7.60;;;;;;;;;;5136865;27;20456;-56
2022/03/08 01:20:14;;;;;;;11.60;8.53;;;;;;;;;;5136912;27;20955;-53
2022/03/08 01:22:43;;;;;;;11.43;8.23;;;;;;;;;;5137052;27;20400;-54
2022/03/08 01:25:10;;;;;;;14.33;8.20;;;;;;;;;;5137040;27;20408;-52
2022/03/08 01:27:36;;;;;;;12.13;7.57;;;;;;;;;;5136876;27;20834;-55
2022/03/08 01:30:04;;;;;;;13.43;8.00;;;;;;;;;;5136929;27;20460;-52
2022/03/08 01:32:30;;;;;;;13.97;8.10;;;;;;;;;;5118338;27;20746;-53
2022/03/08 01:34:56;;;;;;;14.43;8.47;;;;;;;;;;5136608;27;20481;-56
2022/03/08 01:37:25;;;;;;;14.20;8.70;;;;;;;;;;5136807;27;20399;-53
2022/03/08 01:39:51;;;;;;;11.70;8.60;;;;;;;;;;5136803;27;20517;-53
2022/03/08 01:42:18;;;;;;;12.00;8.00;;;;;;;;;;5136705;27;20806;-55
2022/03/08 01:44:47;;;;;;;12.50;8.40;;;;;;;;;;5136579;27;20422;-52
2022/03/08 01:47:14;;;;;;;10.83;8.57;;;;;;;;;;5136465;27;20933;-54
2022/03/08 01:49:40;;;;;;;12.90;8.23;;;;;;;;;;5136452;27;20491;-54
2022/03/08 01:52:07;;;;;;;17.40;7.87;;;;;;;;;;5136507;27;20408;-52
2022/03/08 01:54:33;;;;;;;12.40;8.60;;;;;;;;;;5136252;27;20830;-56
2022/03/08 01:56:59;;;;;;;11.23;7.30;;;;;;;;;;5136109;27;20408;-55
2022/03/08 01:59:25;;;;;;;9.27;8.00;;;;;;;;;;5135972;27;20463;-55
2022/03/08 02:01:51;;;;;;;15.10;7.90;;;;;;;;;;5117949;27;20408;-59
2022/03/08 02:04:18;;;;;;;10.97;7.07;;;;;;;;;;5135503;27;20806;-55
2022/03/08 02:06:47;;;;;;;14.03;7.93;;;;;;;;;;5136265;27;20408;-58
2022/03/08 02:09:13;;;;;;;10.37;7.70;;;;;;;;;;5117891;27;20420;-56
2022/03/08 02:11:40;;;;;;;8.70;6.70;;;;;;;;;;5117754;27;20400;-52
2022/03/08 02:14:06;;;;;;;8.80;7.23;;;;;;;;;;5136209;27;20419;-54
2022/03/08 02:16:32;;;;;;;11.00;7.67;;;;;;;;;;5135962;27;20419;-52
2022/03/08 02:18:58;;;;;;;11.63;7.20;;;;;;;;;;5135668;27;20470;-52
2022/03/08 02:21:25;;;;;;;8.60;7.30;;;;;;;;;;5135943;27;20396;-56
2022/03/08 02:23:52;;;;;;;11.60;7.53;;;;;;;;;;5117702;27;20412;-58
2022/03/08 02:26:19;;;;;;;9.33;7.30;;;;;;;;;;5135749;27;20456;-58
2022/03/08 02:28:45;;;;;;;14.90;7.70;;;;;;;;;;5117329;27;20416;-58
2022/03/08 02:31:11;;;;;;;10.43;7.93;;;;;;;;;;5135658;27;20415;-57
2022/03/08 02:33:38;;;;;;;12.50;8.57;;;;;;;;;;5117199;27;20927;-58
2022/03/08 02:36:09;;;;;;;16.83;8.63;;;;;;;;;;5135500;27;20830;-53
2022/03/08 02:38:34;;;;;;;12.97;7.40;;;;;;;;;;5117036;27;20500;-55
2022/03/08 02:41:03;;;;;;;13.40;7.70;;;;;;;;;;5116990;27;20436;-54
2022/03/08 02:43:29;;;;;;;10.80;7.53;;;;;;;;;;5117038;27;20407;-54
2022/03/08 02:45:55;;;;;;;15.93;7.63;;;;;;;;;;5135294;27;20419;-54
2022/03/08 02:48:25;;;;;;;15.30;8.37;;;;;;;;;;5135449;27;20404;-55
2022/03/08 02:50:51;;;;;;;12.20;8.60;;;;;;;;;;5135546;27;20502;-56
2022/03/08 02:53:17;;;;;;;13.00;7.83;;;;;;;;;;5135002;27;20440;-51
2022/03/08 02:55:43;;;;;;;10.17;7.10;;;;;;;;;;5135231;27;20499;-53
2022/03/08 02:58:09;;;;;;;13.13;8.33;;;;;;;;;;5134974;27;20411;-54
2022/03/08 03:00:36;;;;;;;9.70;7.20;;;;;;;;;;5135171;27;20431;-53
2022/03/08 03:03:02;;;;;;;13.70;8.77;;;;;;;;;;5116771;27;20854;-53
2022/03/08 03:05:29;;;;;;;14.30;9.00;;;;;;;;;;5135159;27;20404;-55
2022/03/08 03:07:55;;;;;;;10.77;7.70;;;;;;;;;;5135180;27;20439;-55
2022/03/08 03:10:21;;;;;;;11.63;8.10;;;;;;;;;;5135214;27;20415;-55
2022/03/08 03:12:47;;;;;;;11.63;8.40;;;;;;;;;;5134950;27;20495;-56
2022/03/08 03:15:14;;;;;;;10.63;7.60;;;;;;;;;;5134825;27;20408;-53
2022/03/08 03:17:41;;;;;;;14.47;9.00;;;;;;;;;;5134604;27;20475;-53
2022/03/08 03:20:08;;;;;;;15.70;8.13;;;;;;;;;;5134789;27;20467;-52
2022/03/08 03:22:34;;;;;;;13.20;8.53;;;;;;;;;;5134786;27;20404;-52
2022/03/08 03:25:00;;;;;;;13.93;8.73;;;;;;;;;;5134737;27;20408;-52
2022/03/08 03:27:26;;;;;;;13.40;8.27;;;;;;;;;;5134732;27;20404;-54
2022/03/08 03:29:53;;;;;;;10.70;7.83;;;;;;;;;;5134766;27;20907;-56
2022/03/08 03:32:19;;;;;;;9.80;7.20;;;;;;;;;;5134680;27;20404;-55
2022/03/08 03:34:46;;;;;;;13.37;8.67;;;;;;;;;;5134541;27;20412;-55
2022/03/08 03:37:12;;;;;;;10.73;7.70;;;;;;;;;;5134522;27;20440;-54
2022/03/08 03:39:38;;;;;;;14.57;7.73;;;;;;;;;;5134240;27;20625;-53
2022/03/08 03:42:04;;;;;;;13.10;8.30;;;;;;;;;;5115920;27;20929;-54
2022/03/08 03:44:30;;;;;;;14.07;8.10;;;;;;;;;;5115946;27;20421;-53
2022/03/08 03:46:57;;;;;;;12.50;8.33;;;;;;;;;;5134200;27;20411;-52
2022/03/08 03:49:23;;;;;;;11.47;7.90;;;;;;;;;;5134279;27;20736;-55
2022/03/08 03:51:51;;;;;;;11.97;8.00;;;;;;;;;;5134339;27;20415;-53
2022/03/08 03:54:20;;;;;;;11.60;7.33;;;;;;;;;;5115636;27;20904;-53
2022/03/08 03:56:46;;;;;;;9.67;7.70;;;;;;;;;;5134245;27;20419;-51
2022/03/08 03:59:13;;;;;;;12.40;7.90;;;;;;;;;;5134033;27;20467;-54
2022/03/08 04:01:39;;;;;;;13.40;9.50;;;;;;;;;;5115692;27;20412;-55
2022/03/08 04:04:08;;;;;;;12.27;8.17;;;;;;;;;;5134115;27;20427;-53
2022/03/08 04:06:35;;;;;;;13.23;8.33;;;;;;;;;;5133996;27;20860;-53
2022/03/08 04:09:01;;;;;;;11.80;8.40;;;;;;;;;;5134035;27;20532;-53
2022/03/08 04:11:27;;;;;;;17.13;8.73;;;;;;;;;;5133897;27;20896;-54
2022/03/08 04:13:54;;;;;;;13.40;8.83;;;;;;;;;;5133986;27;20506;-51
2022/03/08 04:16:20;;;;;;;13.77;8.80;;;;;;;;;;5134021;27;20429;-53
2022/03/08 04:18:48;;;;;;;14.87;8.77;;;;;;;;;;5133646;27;20479;-52
2022/03/08 04:21:15;;;;;;;15.00;8.80;;;;;;;;;;5133842;27;20411;-55
2022/03/08 04:23:41;;;;;;;14.70;9.60;;;;;;;;;;5133704;27;20467;-52
2022/03/08 04:26:07;;;;;;;16.33;9.13;;;;;;;;;;5133288;27;20408;-52
2022/03/08 04:28:33;;;;;;;17.77;10.40;;;;;;;;;;5133700;27;20465;-54
2022/03/08 04:30:59;;;;;;;15.13;9.40;;;;;;;;;;5133618;27;20491;-53
2022/03/08 04:33:25;;;;;;;23.40;12.87;;;;;;;;;;5133644;27;20446;-51
2022/03/08 04:35:51;;;;;;;16.07;9.53;;;;;;;;;;5133595;28;20406;-56
2022/03/08 04:38:17;;;;;;;17.30;10.07;;;;;;;;;;5133229;28;20411;-55
2022/03/08 04:40:43;;;;;;;19.73;8.87;;;;;;;;;;5133478;28;20446;-56
2022/03/08 04:43:09;;;;;;;21.63;10.03;;;;;;;;;;5133367;28;20861;-54
2022/03/08 04:45:35;;;;;;;18.17;9.10;;;;;;;;;;5133609;28;20395;-51
2022/03/08 04:48:03;;;;;;;18.47;10.10;;;;;;;;;;5133498;28;20487;-53
2022/03/08 04:50:29;;;;;;;13.30;9.70;;;;;;;;;;5133447;28;20446;-54
2022/03/08 04:52:56;;;;;;;16.50;9.83;;;;;;;;;;5133365;28;20411;-54
2022/03/08 04:55:22;;;;;;;16.87;9.30;;;;;;;;;;5133655;28;20436;-51
2022/03/08 04:57:48;;;;;;;20.40;10.00;;;;;;;;;;5133313;28;20412;-55
2022/03/08 05:00:16;;;;;;;14.60;9.77;;;;;;;;;;5114800;28;20498;-52
2022/03/08 05:02:45;;;;;;;17.87;10.47;;;;;;;;;;5133437;28;20821;-51
2022/03/08 05:05:12;;;;;;;17.10;9.40;;;;;;;;;;5133332;28;20404;-53
2022/03/08 05:07:39;;;;;;;17.63;10.40;;;;;;;;;;5133253;28;20821;-54
2022/03/08 05:10:09;;;;;;;18.50;9.80;;;;;;;;;;5114907;28;20444;-51
2022/03/08 05:12:36;;;;;;;17.70;9.57;;;;;;;;;;5133346;28;20446;-51
2022/03/08 05:15:02;;;;;;;17.20;9.47;;;;;;;;;;5133247;28;20399;-52
2022/03/08 05:17:28;;;;;;;19.10;8.73;;;;;;;;;;5132829;28;20955;-52
2022/03/08 05:19:54;;;;;;;15.20;9.40;;;;;;;;;;5133000;28;20467;-53
2022/03/08 05:22:20;;;;;;;15.70;9.17;;;;;;;;;;5133224;28;20419;-53
2022/03/08 05:24:49;;;;;;;15.57;9.77;;;;;;;;;;5133002;28;20745;-53
2022/03/08 05:27:15;;;;;;;17.67;9.93;;;;;;;;;;5132874;28;20410;-53
2022/03/08 05:29:41;;;;;;;18.60;10.00;;;;;;;;;;5133012;28;20579;-53
2022/03/08 05:32:07;;;;;;;19.40;10.03;;;;;;;;;;5132908;28;20385;-54
2022/03/08 05:34:33;;;;;;;15.93;9.83;;;;;;;;;;5114308;28;20505;-54
2022/03/08 05:36:59;;;;;;;15.50;9.57;;;;;;;;;;5133000;27;20491;-55
2022/03/08 05:39:25;;;;;;;14.47;9.10;;;;;;;;;;5135766;27;20467;-55
2022/03/08 05:41:52;;;;;;;15.60;9.67;;;;;;;;;;5136791;27;20404;-53
2022/03/08 05:44:18;;;;;;;18.37;10.50;;;;;;;;;;5136494;27;20415;-54
2022/03/08 05:46:44;;;;;;;21.73;10.33;;;;;;;;;;5136523;27;20412;-55
2022/03/08 05:49:10;;;;;;;18.10;9.67;;;;;;;;;;5136613;27;20441;-56
2022/03/08 05:51:36;;;;;;;15.93;10.37;;;;;;;;;;5136406;27;20456;-54
2022/03/08 05:54:02;;;;;;;16.33;9.63;;;;;;;;;;5136397;27;20390;-53
2022/03/08 05:56:31;;;;;;;22.73;9.80;;;;;;;;;;5136191;27;20404;-56
2022/03/08 05:58:57;;;;;;;19.47;9.83;;;;;;;;;;5117691;27;20547;-55
2022/03/08 06:01:23;;;;;;;18.07;9.50;;;;;;;;;;5136396;27;20407;-53
2022/03/08 06:03:49;;;;;;;18.93;10.40;;;;;;;;;;5117637;27;20408;-55
2022/03/08 06:06:16;;;;;;;15.80;10.10;;;;;;;;;;5136109;27;20424;-59
2022/03/08 06:08:42;;;;;;;18.63;10.17;;;;;;;;;;5117551;27;20442;-54
2022/03/08 06:11:10;;;;;;;19.63;10.40;;;;;;;;;;5136141;27;20438;-56
2022/03/08 06:13:36;;;;;;;22.77;12.40;;;;;;;;;;5117443;27;20420;-56
2022/03/08 06:16:02;;;;;;;24.73;12.70;;;;;;;;;;5136134;27;20396;-60
2022/03/08 06:18:28;;;;;;;22.87;11.90;;;;;;;;;;5117217;27;20456;-62
2022/03/08 06:20:54;;;;;;;32.57;12.40;;;;;;;;;;5135769;27;20426;-58
2022/03/08 06:23:21;;;;;;;24.03;11.37;;;;;;;;;;5135969;27;20418;-58
2022/03/08 06:25:47;;;;;;;25.30;11.00;;;;;;;;;;5117187;27;20935;-56
2022/03/08 06:28:13;;;;;;;23.03;12.60;;;;;;;;;;5135583;27;20797;-57
2022/03/08 06:30:39;;;;;;;24.17;10.97;;;;;;;;;;5117306;27;20404;-58
2022/03/08 06:33:05;;;;;;;18.07;10.37;;;;;;;;;;5135662;27;20414;-55
2022/03/08 06:35:37;;;;;;;18.47;10.73;;;;;;;;;;5117108;27;20456;-55
2022/03/08 06:38:03;;;;;;;19.80;10.80;;;;;;;;;;5135583;27;20433;-54
2022/03/08 06:40:29;;;;;;;16.90;10.83;;;;;;;;;;5135341;27;20464;-55
2022/03/08 06:42:55;;;;;;;21.73;10.03;;;;;;;;;;5135300;27;20400;-57
2022/03/08 06:45:21;;;;;;;14.67;9.77;;;;;;;;;;5135476;27;20404;-53
2022/03/08 06:47:47;;;;;;;24.60;12.73;;;;;;;;;;5135327;27;20425;-54
2022/03/08 06:50:13;;;;;;;21.40;11.30;;;;;;;;;;5134784;27;20412;-55
2022/03/08 06:52:40;;;;;;;20.17;11.30;;;;;;;;;;5135255;27;20477;-55
2022/03/08 06:55:06;;;;;;;20.67;10.30;;;;;;;;;;5135102;27;20943;-56
2022/03/08 06:57:37;;;;;;;16.17;10.43;;;;;;;;;;5135178;27;20757;-54
2022/03/08 07:00:04;;;;;;;18.37;11.57;;;;;;;;;;5135071;27;20978;-57
2022/03/08 07:02:30;;;;;;;20.40;10.20;;;;;;;;;;5134852;27;20408;-57
2022/03/08 07:04:59;;;;;;;18.00;10.87;;;;;;;;;;5116386;27;20420;-58
2022/03/08 07:07:25;;;;;;;26.83;11.63;;;;;;;;;;5135024;27;20400;-57
2022/03/08 07:09:51;;;;;;;19.33;10.37;;;;;;;;;;5134924;27;20408;-57
2022/03/08 07:12:20;;;;;;;25.60;11.10;;;;;;;;;;5134710;27;20403;-54
2022/03/08 07:14:46;;;;;;;17.83;9.50;;;;;;;;;;5116250;27;20420;-53
2022/03/08 07:17:13;;;;;;;18.47;11.23;;;;;;;;;;5134452;27;20449;-55
2022/03/08 07:19:40;;;;;;;23.73;11.10;;;;;;;;;;5134271;27;20608;-54
2022/03/08 07:22:06;;;;;;;18.90;10.80;;;;;;;;;;5133953;27;20465;-57
2022/03/08 07:24:32;;;;;;;18.40;10.87;;;;;;;;;;5134653;27;20792;-56
2022/03/08 07:26:58;;;;;;;19.40;11.40;;;;;;;;;;5134361;27;20408;-56
2022/03/08 07:29:24;;;;;;;23.67;10.73;;;;;;;;;;5134597;27;20810;-55
2022/03/08 07:31:50;;;;;;;18.60;10.90;;;;;;;;;;5134463;27;20461;-54
2022/03/08 07:34:16;;;;;;;18.20;11.83;;;;;;;;;;5133536;27;20436;-56
2022/03/08 07:36:42;;;;;;;21.13;11.57;;;;;;;;;;5115867;27;20756;-56
2022/03/08 07:39:09;;;;;;;24.40;11.77;;;;;;;;;;5133025;27;20554;-54
2022/03/08 07:41:38;;;;;;;20.40;12.50;;;;;;;;;;5134209;27;20500;-54
2022/03/08 07:44:04;;;;;;;20.27;12.10;;;;;;;;;;5114330;27;20408;-53
2022/03/08 07:46:30;;;;;;;19.00;12.07;;;;;;;;;;5134177;27;20979;-55
2022/03/08 07:48:56;;;;;;;28.10;15.20;;;;;;;;;;5133895;27;20757;-56
2022/03/08 07:51:23;;;;;;;26.67;14.43;;;;;;;;;;5134151;27;20771;-56
2022/03/08 07:53:49;;;;;;;16.90;11.37;;;;;;;;;;5134214;27;20411;-55
2022/03/08 07:56:15;;;;;;;17.50;11.40;;;;;;;;;;5134006;27;20404;-54
2022/03/08 07:58:41;;;;;;;18.97;11.70;;;;;;;;;;5133903;27;20537;-55
2022/03/08 08:01:08;;;;;;;14.07;10.53;;;;;;;;;;5114880;27;20476;-56
2022/03/08 08:03:34;;;;;;;13.73;10.63;;;;;;;;;;5133771;27;20717;-56
2022/03/08 08:06:02;;;;;;;18.20;12.10;;;;;;;;;;5115238;27;20427;-60
2022/03/08 08:08:28;;;;;;;15.60;10.30;;;;;;;;;;5129013;27;20416;-60
2022/03/08 08:10:54;;;;;;;11.83;8.60;;;;;;;;;;5132932;27;20415;-58
2022/03/08 08:13:20;;;;;;;13.53;9.30;;;;;;;;;;5128833;27;20406;-60
2022/03/08 08:15:46;;;;;;;15.83;9.07;;;;;;;;;;5111843;27;20420;-58
2022/03/08 08:18:12;;;;;;;13.80;9.50;;;;;;;;;;5120794;27;20457;-60
2022/03/08 08:20:38;;;;;;;12.53;9.43;;;;;;;;;;5112457;28;20472;-60
2022/03/08 08:23:05;;;;;;;18.37;10.00;;;;;;;;;;5112565;28;20539;-60
2022/03/08 08:25:31;;;;;;;14.20;9.90;;;;;;;;;;5131323;27;20400;-59
2022/03/08 08:27:57;;;;;;;12.50;9.53;;;;;;;;;;5132932;27;20431;-58
2022/03/08 08:30:23;;;;;;;14.40;9.43;;;;;;;;;;5133013;27;20407;-61
2022/03/08 08:32:52;;;;;;;14.50;10.83;;;;;;;;;;5114280;28;20433;-59
2022/03/08 08:35:21;;;;;;;13.73;9.50;;;;;;;;;;5132875;28;20407;-60
2022/03/08 08:37:50;;;;;;;20.30;10.37;;;;;;;;;;5114392;28;20427;-61
2022/03/08 08:40:17;;;;;;;15.97;10.17;;;;;;;;;;5132630;28;20474;-60
2022/03/08 08:42:43;;;;;;;13.53;10.10;;;;;;;;;;5132384;28;20440;-58
2022/03/08 08:45:09;;;;;;;15.00;10.30;;;;;;;;;;5132613;28;20415;-58
2022/03/08 08:47:35;;;;;;;20.70;11.20;;;;;;;;;;5124474;28;20768;-61
2022/03/08 08:50:01;;;;;;;17.43;10.27;;;;;;;;;;5112112;28;20906;-58
2022/03/08 08:52:27;;;;;;;15.60;10.13;;;;;;;;;;5112086;28;20508;-59
2022/03/08 08:54:53;;;;;;;14.67;10.77;;;;;;;;;;5111673;28;20989;-59
2022/03/08 08:57:22;;;;;;;13.33;9.90;;;;;;;;;;5093923;28;20910;-59
2022/03/08 08:59:48;;;;;;;16.00;11.10;;;;;;;;;;5112164;28;20464;-60
2022/03/08 09:02:14;;;;;;;20.10;10.67;;;;;;;;;;5111957;28;20405;-59
2022/03/08 09:04:41;;;;;;;16.10;10.53;;;;;;;;;;5093400;28;20769;-60
2022/03/08 09:07:07;;;;;;;21.43;10.33;;;;;;;;;;5111791;28;20935;-62
2022/03/08 09:09:33;;;;;;;22.33;10.40;;;;;;;;;;5099971;28;20424;-61
2022/03/08 09:11:59;;;;;;;17.73;10.47;;;;;;;;;;5145225;27;20770;-60
2022/03/08 09:14:25;;;;;;;14.57;10.40;;;;;;;;;;5157124;27;20403;-59
2022/03/08 09:16:52;;;;;;;13.80;10.70;;;;;;;;;;5136451;27;20433;-61
2022/03/08 09:19:18;;;;;;;12.83;9.93;;;;;;;;;;5136167;27;20467;-61
2022/03/08 09:21:44;;;;;;;12.33;10.27;;;;;;;;;;5128020;27;20413;-60
2022/03/08 09:24:10;;;;;;;11.60;9.70;;;;;;;;;;5116094;28;20905;-60
2022/03/08 09:26:36;;;;;;;13.30;10.43;;;;;;;;;;5115730;28;20418;-61
2022/03/08 09:29:03;;;;;;;13.47;9.67;;;;;;;;;;5115558;28;20405;-60
2022/03/08 09:31:29;;;;;;;13.50;10.03;;;;;;;;;;5115630;28;20401;-61
2022/03/08 09:33:55;;;;;;;12.87;10.00;;;;;;;;;;5115465;28;20418;-63
2022/03/08 09:36:21;;;;;;;14.00;10.37;;;;;;;;;;5115135;28;20496;-58
2022/03/08 09:38:47;;;;;;;20.60;9.53;;;;;;;;;;5115071;28;20934;-59
2022/03/08 09:41:14;;;;;;;14.63;9.80;;;;;;;;;;5115421;28;20412;-59
2022/03/08 09:43:43;;;;;;;11.43;8.93;;;;;;;;;;5115349;28;20427;-59
2022/03/08 09:46:10;;;;;;;13.10;9.83;;;;;;;;;;5115537;28;20763;-60
2022/03/08 09:48:36;;;;;;;13.77;9.87;;;;;;;;;;5115288;28;20408;-58
2022/03/08 09:51:03;;;;;;;12.90;9.10;;;;;;;;;;5115043;28;20416;-55
2022/03/08 09:53:30;;;;;;;16.33;8.77;;;;;;;;;;5115106;28;21002;-60
2022/03/08 09:56:00;;;;;;;14.10;9.23;;;;;;;;;;5114926;28;20948;-58
2022/03/08 09:58:30;;;;;;;10.20;8.80;;;;;;;;;;5115047;28;20409;-60
2022/03/08 10:00:59;;;;;;;13.40;9.90;;;;;;;;;;5114908;28;20408;-56
2022/03/08 10:03:35;;;;;;;17.40;8.97;;;;;;;;;;5096445;28;20397;-61
2022/03/08 10:06:05;;;;;;;10.80;8.33;;;;;;;;;;5096695;28;20928;-60
2022/03/08 10:08:31;;;;;;;8.30;7.50;;;;;;;;;;5114867;28;20747;-58
2022/03/08 10:11:01;;;;;;;10.47;8.10;;;;;;;;;;5114671;28;20445;-59
2022/03/08 10:13:32;;;;;;;9.07;8.17;;;;;;;;;;5114619;28;20442;-58
2022/03/08 10:16:26;;;;;;;9.60;7.30;;;;;;;;;;5127357;27;20892;-59
2022/03/08 10:18:56;;;;;;;10.50;6.80;;;;;;;;;;5132040;27;20566;-59
2022/03/08 10:21:25;;;;;;;7.00;6.30;;;;;;;;;;5130062;27;20420;-62
2022/03/08 10:23:53;;;;;;;9.30;6.30;;;;;;;;;;5113945;28;20484;-59
2022/03/08 10:26:20;;;;;;;9.97;6.77;;;;;;;;;;5114730;28;20954;-56
2022/03/08 10:28:50;;;;;;;6.40;5.80;;;;;;;;;;5096227;28;20413;-55
2022/03/08 10:31:16;;;;;;;6.83;6.23;;;;;;;;;;5114633;28;20436;-56
2022/03/08 10:33:46;;;;;;;8.23;6.77;;;;;;;;;;5114882;28;20892;-58
2022/03/08 10:36:21;;;;;;;9.93;6.50;;;;;;;;;;5114705;28;20408;-55
2022/03/08 10:39:07;;;;;;;10.03;7.00;;;;;;;;;;5114263;28;20464;-58
2022/03/08 10:41:34;;;;;;;6.80;6.20;;;;;;;;;;5114377;28;20432;-60
2022/03/08 10:44:00;;;;;;;6.47;5.97;;;;;;;;;;5114430;28;20428;-63
2022/03/08 10:46:26;;;;;;;7.57;6.30;;;;;;;;;;5122709;27;20490;-61
2022/03/08 10:48:55;;;;;;;6.40;5.80;;;;;;;;;;5155315;27;20450;-63
2022/03/08 10:51:22;;;;;;;8.80;7.70;;;;;;;;;;5155469;27;20848;-62
2022/03/08 10:53:48;;;;;;;8.00;5.90;;;;;;;;;;5155166;27;20808;-61
2022/03/08 10:56:23;;;;;;;7.10;6.40;;;;;;;;;;5155167;27;20499;-58
2022/03/08 10:58:50;;;;;;;6.60;6.00;;;;;;;;;;5155054;27;20454;-61
2022/03/08 11:01:16;;;;;;;7.00;6.40;;;;;;;;;;5155153;27;20420;-63
2022/03/08 11:03:54;;;;;;;7.23;6.63;;;;;;;;;;5135387;27;20425;-57
2022/03/08 11:06:20;;;;;;;7.93;6.60;;;;;;;;;;5113789;28;20396;-55
2022/03/08 11:08:49;;;;;;;16.40;7.00;;;;;;;;;;5119493;27;20411;-60
2022/03/08 11:11:16;;;;;;;7.83;6.53;;;;;;;;;;5152756;27;20406;-58
2022/03/08 11:13:43;;;;;;;7.87;6.70;;;;;;;;;;5134345;27;20411;-59
2022/03/08 11:16:10;;;;;;;7.10;6.40;;;;;;;;;;5134084;27;20889;-56
2022/03/08 11:18:36;;;;;;;11.00;6.90;;;;;;;;;;5133625;27;20582;-62
2022/03/08 11:21:03;;;;;;;8.17;6.67;;;;;;;;;;5133706;27;20785;-58
2022/03/08 11:23:33;;;;;;;6.83;6.23;;;;;;;;;;5133835;27;20504;-57
2022/03/08 11:25:59;;;;;;;7.07;6.37;;;;;;;;;;5133752;27;20412;-59
2022/03/08 11:28:26;;;;;;;14.20;6.93;;;;;;;;;;5115484;27;20420;-57
2022/03/08 11:30:54;;;;;;;7.93;6.23;;;;;;;;;;5115444;27;20427;-57
2022/03/08 11:33:20;;;;;;;8.73;6.87;;;;;;;;;;5133818;27;20404;-58
2022/03/08 11:35:52;;;;;;;7.60;6.77;;;;;;;;;;5132502;27;20841;-56
2022/03/08 11:38:18;;;;;;;8.17;7.10;;;;;;;;;;5133829;27;20410;-59
2022/03/08 11:40:49;;;;;;;7.77;6.50;;;;;;;;;;5133297;27;21025;-56
2022/03/08 11:43:15;;;;;;;11.07;6.70;;;;;;;;;;5133411;27;20415;-54
2022/03/08 11:45:41;;;;;;;7.13;6.53;;;;;;;;;;5132900;27;20491;-58
2022/03/08 11:48:09;;;;;;;9.40;6.80;;;;;;;;;;5133191;27;20453;-57
2022/03/08 11:50:44;;;;;;;8.87;7.50;;;;;;;;;;5133361;27;20491;-57
2022/03/08 11:53:12;;;;;;;6.50;5.90;;;;;;;;;;5132996;27;20399;-59
2022/03/08 11:55:40;;;;;;;7.83;7.07;;;;;;;;;;5133124;27;20403;-62
2022/03/08 11:58:07;;;;;;;8.10;7.10;;;;;;;;;;5133301;27;20564;-62
2022/03/08 12:00:40;;;;;;;7.10;6.47;;;;;;;;;;5132998;27;20470;-62
2022/03/08 12:03:14;;;;;;;6.93;6.10;;;;;;;;;;5133094;27;20396;-59
2022/03/08 12:05:59;;;;;;;7.13;5.43;;;;;;;;;;5133112;27;20449;-59
2022/03/08 12:08:28;;;;;;;4.90;4.50;;;;;;;;;;5132976;27;20424;-61
2022/03/08 12:11:01;;;;;;;6.03;4.90;;;;;;;;;;5133013;27;20396;-60
2022/03/08 12:13:28;;;;;;;6.10;5.53;;;;;;;;;;5133052;27;20499;-60
2022/03/08 12:16:09;;;;;;;5.13;4.83;;;;;;;;;;5133047;27;20939;-59
2022/03/08 12:18:36;;;;;;;5.80;5.30;;;;;;;;;;5113386;27;20459;-58
2022/03/08 12:21:17;;;;;;;5.33;4.93;;;;;;;;;;5132545;27;20912;-63
2022/03/08 12:23:50;;;;;;;5.20;4.90;;;;;;;;;;5133068;27;20400;-58
2022/03/08 12:26:25;;;;;;;5.20;4.90;;;;;;;;;;5153023;27;20446;-58
2022/03/08 12:29:03;;;;;;;5.30;4.90;;;;;;;;;;5153723;27;20398;-62
2022/03/08 12:31:32;;;;;;;4.87;4.50;;;;;;;;;;5153509;27;20399;-60
2022/03/08 12:34:02;;;;;;;5.60;5.10;;;;;;;;;;5153393;27;20415;-57
2022/03/08 12:36:28;;;;;;;5.97;5.37;;;;;;;;;;5153552;27;20414;-59
2022/03/08 12:38:55;;;;;;;7.13;5.00;;;;;;;;;;5153260;27;20484;-60
2022/03/08 12:41:27;;;;;;;5.00;4.60;;;;;;;;;;5153516;27;20883;-58
2022/03/08 12:44:01;;;;;;;5.90;5.10;;;;;;;;;;5126484;28;20819;-58
2022/03/08 12:46:28;;;;;;;4.20;4.00;;;;;;;;;;5133377;27;20416;-58
2022/03/08 12:48:54;;;;;;;5.07;4.20;;;;;;;;;;5137038;27;20411;-56
2022/03/08 12:51:24;;;;;;;4.60;4.20;;;;;;;;;;5136806;27;20415;-57
2022/03/08 12:53:57;;;;;;;6.90;4.00;;;;;;;;;;5137063;27;20918;-58
2022/03/08 12:56:25;;;;;;;4.40;4.20;;;;;;;;;;5118400;27;20404;-58
2022/03/08 12:58:51;;;;;;;4.43;3.93;;;;;;;;;;5137068;27;20411;-58
2022/03/08 13:01:17;;;;;;;4.33;4.03;;;;;;;;;;5136556;27;20415;-58
2022/03/08 13:03:46;;;;;;;4.07;3.87;;;;;;;;;;5136649;27;20456;-60
2022/03/08 13:06:13;;;;;;;4.07;3.87;;;;;;;;;;5136547;27;20496;-59
2022/03/08 13:08:40;;;;;;;4.60;4.30;;;;;;;;;;5136442;27;20926;-59
2022/03/08 13:11:08;;;;;;;4.70;3.93;;;;;;;;;;5136547;27;20435;-58
2022/03/08 13:13:38;;;;;;;4.40;4.10;;;;;;;;;;5136444;27;20410;-57
2022/03/08 13:16:04;;;;;;;4.50;4.20;;;;;;;;;;5136298;27;20411;-58
2022/03/08 13:18:38;;;;;;;4.57;4.27;;;;;;;;;;5136242;27;20538;-56
2022/03/08 13:21:08;;;;;;;4.90;4.50;;;;;;;;;;5136129;27;20428;-59
2022/03/08 13:23:35;;;;;;;4.60;4.30;;;;;;;;;;5136333;27;20448;-57
2022/03/08 13:26:02;;;;;;;4.63;4.30;;;;;;;;;;5118143;27;20398;-54
2022/03/08 13:28:32;;;;;;;4.97;4.40;;;;;;;;;;5117961;27;20852;-58
2022/03/08 13:31:02;;;;;;;7.23;4.60;;;;;;;;;;5136077;27;20920;-56
2022/03/08 13:33:29;;;;;;;5.10;4.70;;;;;;;;;;5117714;27;20407;-55
2022/03/08 13:36:00;;;;;;;4.77;4.47;;;;;;;;;;5117285;27;20416;-56
2022/03/08 13:38:36;;;;;;;6.03;4.83;;;;;;;;;;5135977;27;20396;-59
2022/03/08 13:41:07;;;;;;;4.50;4.20;;;;;;;;;;5135853;27;21038;-58
2022/03/08 13:43:34;;;;;;;4.23;4.03;;;;;;;;;;5135710;27;20404;-58
2022/03/08 13:46:04;;;;;;;4.70;4.40;;;;;;;;;;5135660;27;20411;-60
2022/03/08 13:48:32;;;;;;;5.03;4.43;;;;;;;;;;5135750;27;20754;-60
2022/03/08 13:51:02;;;;;;;4.43;4.20;;;;;;;;;;5135702;27;20404;-60
2022/03/08 13:53:28;;;;;;;4.50;4.30;;;;;;;;;;5135415;27;20435;-59
2022/03/08 13:55:57;;;;;;;5.20;4.80;;;;;;;;;;5136019;27;20469;-59
2022/03/08 13:58:25;;;;;;;4.53;4.23;;;;;;;;;;5116266;28;20435;-58
2022/03/08 14:00:52;;;;;;;4.73;4.30;;;;;;;;;;5135602;27;20987;-58
2022/03/08 14:03:18;;;;;;;5.30;4.80;;;;;;;;;;5136121;27;20408;-57
2022/03/08 14:05:48;;;;;;;5.73;4.20;;;;;;;;;;5135422;27;20464;-59
2022/03/08 14:08:22;;;;;;;4.30;4.00;;;;;;;;;;5135305;27;20400;-61
2022/03/08 14:10:52;;;;;;;4.87;4.40;;;;;;;;;;5135405;27;20420;-60
2022/03/08 14:13:22;;;;;;;7.67;4.10;;;;;;;;;;5135289;27;20557;-56
2022/03/08 14:15:55;;;;;;;6.53;4.80;;;;;;;;;;5116603;27;20452;-58
2022/03/08 14:18:21;;;;;;;5.23;4.73;;;;;;;;;;5134995;27;20458;-58
2022/03/08 14:20:48;;;;;;;4.87;4.33;;;;;;;;;;5135002;27;20464;-56
2022/03/08 14:23:14;;;;;;;4.20;4.00;;;;;;;;;;5134972;27;20400;-57
2022/03/08 14:25:56;;;;;;;4.30;4.00;;;;;;;;;;5116150;27;20510;-57
2022/03/08 14:28:41;;;;;;;4.40;4.10;;;;;;;;;;5135166;27;20917;-58
2022/03/08 14:31:19;;;;;;;4.60;4.23;;;;;;;;;;5134769;27;20408;-59
2022/03/08 14:33:59;;;;;;;4.87;4.40;;;;;;;;;;5134935;27;20412;-61